TimeEST,TemperatureF,Dew PointF,Humidity,Sea Level PressureIn,VisibilityMPH,Wind Direction,Wind SpeedMPH,Gust SpeedMPH,PrecipitationIn,Events,Conditions,WindDirDegrees,DateUTC
12:53 AM,16.0,8.1,71,30.52,10.0,Calm,Calm,-,N/A,,Clear,0,2014-01-08 05:53:00
1:53 AM,17.1,5.0,59,30.51,10.0,Calm,Calm,-,N/A,,Clear,0,2014-01-08 06:53:00
2:53 AM,17.1,5.0,59,30.51,10.0,Calm,Calm,-,N/A,,Clear,0,2014-01-08 07:53:00
3:53 AM,16.0,6.1,65,30.51,10.0,Calm,Calm,-,N/A,,Clear,0,2014-01-08 08:53:00
4:53 AM,17.1,6.1,62,30.51,10.0,Calm,Calm,-,N/A,,Clear,0,2014-01-08 09:53:00
5:53 AM,17.1,6.1,62,30.52,10.0,NW,3.5,-,N/A,,Clear,320,2014-01-08 10:53:00
6:53 AM,16.0,6.1,65,30.53,10.0,Calm,Calm,-,N/A,,Clear,0,2014-01-08 11:53:00
7:53 AM,16.0,12.0,84,30.53,10.0,Calm,Calm,-,N/A,,Clear,0,2014-01-08 12:53:00
8:53 AM,21.0,9.0,60,30.56,10.0,Calm,Calm,-,N/A,,Clear,0,2014-01-08 13:53:00
9:53 AM,24.1,8.1,51,30.57,10.0,Calm,Calm,-,N/A,,Clear,0,2014-01-08 14:53:00
10:53 AM,30.9,8.1,38,30.57,10.0,Calm,Calm,-,N/A,,Clear,0,2014-01-08 15:53:00
11:53 AM,37.9,5.0,25,30.53,10.0,East,3.5,-,N/A,,Clear,80,2014-01-08 16:53:00
12:53 PM,42.1,-6.0,13,30.48,10.0,Calm,Calm,-,N/A,,Clear,0,2014-01-08 17:53:00
1:53 PM,45.0,-6.0,12,30.47,10.0,Calm,Calm,-,N/A,,Clear,0,2014-01-08 18:53:00
2:53 PM,46.9,-7.1,10,30.45,10.0,Variable,4.6,-,N/A,,Clear,0,2014-01-08 19:53:00
3:53 PM,46.9,-5.1,11,30.45,10.0,Calm,Calm,-,N/A,,Clear,0,2014-01-08 20:53:00
4:53 PM,46.9,-2.9,13,30.44,10.0,SSE,3.5,-,N/A,,Clear,150,2014-01-08 21:53:00
5:53 PM,43.0,1.9,18,30.45,10.0,SSE,4.6,-,N/A,,Clear,150,2014-01-08 22:53:00
6:53 PM,36.0,7.0,30,30.47,10.0,SE,3.5,-,N/A,,Clear,140,2014-01-08 23:53:00
7:53 PM,32.0,8.1,37,30.49,10.0,Calm,Calm,-,N/A,,Clear,0,2014-01-09 00:53:00
8:53 PM,28.0,12.0,51,30.49,10.0,Calm,Calm,-,N/A,,Clear,0,2014-01-09 01:53:00
9:53 PM,28.0,14.0,56,30.50,10.0,Calm,Calm,-,N/A,,Clear,0,2014-01-09 02:53:00
10:53 PM,28.0,12.9,53,30.49,10.0,Calm,Calm,-,N/A,,Clear,0,2014-01-09 03:53:00
11:53 PM,28.0,17.1,63,30.47,10.0,Calm,Calm,-,N/A,,Clear,0,2014-01-09 04:53:00